KGDB

Details ICAO KGDB
Name GRANITE FALLS MUNI LENZEN ROE MEM FLD
Region United States
Timezone America/Chicago (UTC-5.0)
Plans Departing 1
Arriving 2
Stats Elevation 1,047 ft / 319 m (AMSL)
Location 44.753282° -95.556018°
Runways 1
Magnetic Variation 2.042° E
Sunrise 2018-05-26 10:45:00 UTC / 2018-05-26 05:45:00 Local
Sunset 2018-05-27 01:56:28 UTC / 2018-05-26 20:56:28 Local
Advertisement - Login to hide

Runways

ID Width Length Bearing (true) Bearing (mag) Surface Threshold Offset Overrun Length
15 75 ft / 23 m 3,708 ft / 1,130 m 157.14° 155.10° Asphalt 0 ft / 0 m 0 ft / 0 m
33 75 ft / 23 m 3,708 ft / 1,130 m 337.15° 335.11° Asphalt 0 ft / 0 m 0 ft / 0 m

Map

Weather


0- 5 10 15 20 25 30 35+ Temperature / ° C

Clouds and Precipitation
Forecast for 2018-05-26 18:00 UTC. Updated 5 hours ago

Ground ~20,000 ft ~40,000 ft Winds

METAR

KGDB 262059Z AUTO 33005KT 10SM SCT100 34/11 A2973 RMK AO2

TAF

Not found

Frequencies

Recorded 120.10 MHz AWOS 3
Unicom 122.80 MHz CTAF/UNICOM
Warning: Do not use this data for real-world aviation or navigation. No guarantee of current accuracy is given.